Time;durP1;ratioP1;P1;durP2;ratioP2;P2;SDS_P1;SDS_P2;PMS_P1;PMS_P2;Temp;Humidity;BMP_temperature;BMP_pressure;BME280_temperature;BME280_humidity;BME280_pressure;Samples;Min_cycle;Max_cycle;Signal;HPM_P1;HPM_P2
2022/12/13 00:01:11;;;;;;;30.00;17.55;;;;;;;;;;5034510;28;20377;-67
2022/12/13 00:03:37;;;;;;;26.67;16.08;;;;;;;;;;5036350;28;20285;-67
2022/12/13 00:06:04;;;;;;;28.58;18.27;;;;;;;;;;5036766;28;20217;-67
2022/12/13 00:08:30;;;;;;;30.33;17.65;;;;;;;;;;5036606;28;20291;-67
2022/12/13 00:10:58;;;;;;;31.08;17.25;;;;;;;;;;5036857;28;20431;-68
2022/12/13 00:13:25;;;;;;;31.85;16.70;;;;;;;;;;5036434;28;20209;-68
2022/12/13 00:15:55;;;;;;;26.73;16.38;;;;;;;;;;5036475;28;20201;-67
2022/12/13 00:18:23;;;;;;;27.98;16.70;;;;;;;;;;5036244;28;20214;-67
2022/12/13 00:20:49;;;;;;;25.90;16.35;;;;;;;;;;5036304;28;20411;-67
2022/12/13 00:23:15;;;;;;;31.10;17.33;;;;;;;;;;5035995;28;20299;-67
2022/12/13 00:25:42;;;;;;;30.42;17.08;;;;;;;;;;5035955;28;20206;-67
2022/12/13 00:28:08;;;;;;;29.42;17.48;;;;;;;;;;5035771;28;20446;-67
2022/12/13 00:30:34;;;;;;;31.55;17.25;;;;;;;;;;5036198;28;20226;-67
2022/12/13 00:33:01;;;;;;;28.55;16.98;;;;;;;;;;5036162;28;20210;-67
2022/12/13 00:35:28;;;;;;;26.20;17.15;;;;;;;;;;5036008;28;20214;-68
2022/12/13 00:37:55;;;;;;;29.35;17.05;;;;;;;;;;5035895;28;20201;-68
2022/12/13 00:40:21;;;;;;;27.58;17.35;;;;;;;;;;5037662;28;20191;-68
2022/12/13 00:42:47;;;;;;;27.70;17.17;;;;;;;;;;5041734;28;20198;-67
2022/12/13 00:45:14;;;;;;;38.53;19.35;;;;;;;;;;5041592;28;20493;-67
2022/12/13 00:47:40;;;;;;;28.90;17.70;;;;;;;;;;5041430;28;20198;-67
2022/12/13 00:50:07;;;;;;;28.23;17.55;;;;;;;;;;5041301;28;20217;-67
2022/12/13 00:52:34;;;;;;;32.63;18.10;;;;;;;;;;5041321;28;20198;-67
2022/12/13 00:55:02;;;;;;;29.77;18.17;;;;;;;;;;5041557;28;20224;-67
2022/12/13 00:57:28;;;;;;;31.98;17.38;;;;;;;;;;5041298;28;20230;-67
2022/12/13 00:59:55;;;;;;;28.45;17.80;;;;;;;;;;5041188;28;20260;-67
2022/12/13 01:02:21;;;;;;;28.98;16.90;;;;;;;;;;5041208;28;20204;-67
2022/12/13 01:04:49;;;;;;;36.17;18.15;;;;;;;;;;5041402;28;20197;-67
2022/12/13 01:07:15;;;;;;;29.10;17.50;;;;;;;;;;5041330;28;20214;-67
2022/12/13 01:09:42;;;;;;;27.65;16.98;;;;;;;;;;5041051;28;20204;-67
2022/12/13 01:12:11;;;;;;;33.47;17.98;;;;;;;;;;5040952;27;20462;-67
2022/12/13 01:14:37;;;;;;;34.38;18.02;;;;;;;;;;5041198;28;20558;-67
2022/12/13 01:17:04;;;;;;;35.65;18.77;;;;;;;;;;5041097;28;20198;-67
2022/12/13 01:19:31;;;;;;;29.85;18.00;;;;;;;;;;5040746;28;20198;-67
2022/12/13 01:21:58;;;;;;;33.05;18.55;;;;;;;;;;5041062;28;20505;-67
2022/12/13 01:24:25;;;;;;;33.78;18.33;;;;;;;;;;5041103;28;20202;-67
2022/12/13 01:26:51;;;;;;;32.42;18.20;;;;;;;;;;5041241;28;20205;-67
2022/12/13 01:29:19;;;;;;;31.38;18.17;;;;;;;;;;5040524;28;20214;-67
2022/12/13 01:31:45;;;;;;;31.83;18.42;;;;;;;;;;5040838;28;20222;-67
2022/12/13 01:34:13;;;;;;;31.40;17.98;;;;;;;;;;5040723;28;20198;-67
2022/12/13 01:36:39;;;;;;;28.10;17.00;;;;;;;;;;5041100;28;20515;-67
2022/12/13 01:39:06;;;;;;;29.45;18.15;;;;;;;;;;5040633;28;20400;-67
2022/12/13 01:41:33;;;;;;;36.72;18.35;;;;;;;;;;5040738;28;20530;-67
2022/12/13 01:44:02;;;;;;;29.63;18.02;;;;;;;;;;5041057;28;20204;-67
2022/12/13 01:46:30;;;;;;;32.33;17.95;;;;;;;;;;5040564;28;20198;-67
2022/12/13 01:49:00;;;;;;;31.00;17.80;;;;;;;;;;5040143;28;20226;-67
2022/12/13 01:51:28;;;;;;;30.67;17.88;;;;;;;;;;5040441;28;20213;-67
2022/12/13 01:53:55;;;;;;;32.40;18.02;;;;;;;;;;5040603;28;20452;-67
2022/12/13 01:56:23;;;;;;;27.98;16.83;;;;;;;;;;5040388;28;20197;-67
2022/12/13 01:58:50;;;;;;;33.70;18.00;;;;;;;;;;5040201;28;20194;-67
2022/12/13 02:01:17;;;;;;;30.33;17.55;;;;;;;;;;5040447;28;20194;-67
2022/12/13 02:03:45;;;;;;;32.28;18.33;;;;;;;;;;5040686;28;20540;-67
2022/12/13 02:06:14;;;;;;;30.95;17.70;;;;;;;;;;5040413;28;20217;-67
2022/12/13 02:08:41;;;;;;;32.28;18.75;;;;;;;;;;5040261;28;20198;-67
2022/12/13 02:11:07;;;;;;;30.80;17.73;;;;;;;;;;5040236;28;20213;-67
2022/12/13 02:13:34;;;;;;;34.42;18.88;;;;;;;;;;5040403;28;20200;-67
2022/12/13 02:16:06;;;;;;;29.73;17.63;;;;;;;;;;5040088;28;20198;-67
2022/12/13 02:18:41;;;;;;;28.48;17.13;;;;;;;;;;5039891;28;20204;-67
2022/12/13 02:21:25;;;;;;;30.08;17.98;;;;;;;;;;5040046;28;20532;-67
2022/12/13 02:24:11;;;;;;;30.45;17.98;;;;;;;;;;5039532;27;20197;-67
2022/12/13 02:26:52;;;;;;;30.80;17.17;;;;;;;;;;5040055;28;20210;-67
2022/12/13 02:29:34;;;;;;;29.98;17.42;;;;;;;;;;5039694;28;20218;-67
2022/12/13 02:32:04;;;;;;;30.70;18.00;;;;;;;;;;5040024;28;20228;-67
2022/12/13 02:34:34;;;;;;;31.60;18.90;;;;;;;;;;5039954;28;20197;-67
2022/12/13 02:37:03;;;;;;;29.92;18.63;;;;;;;;;;5039335;28;20216;-67
2022/12/13 02:39:32;;;;;;;30.83;18.20;;;;;;;;;;5039561;28;20205;-67
2022/12/13 02:42:00;;;;;;;33.35;18.65;;;;;;;;;;5039568;28;20277;-67
2022/12/13 02:44:28;;;;;;;30.48;17.85;;;;;;;;;;5039420;28;20674;-67
2022/12/13 02:46:55;;;;;;;28.15;16.38;;;;;;;;;;5039416;28;20204;-67
2022/12/13 02:49:24;;;;;;;29.17;18.08;;;;;;;;;;5039441;28;20198;-67
2022/12/13 02:51:54;;;;;;;28.50;16.95;;;;;;;;;;5039245;28;20221;-67
2022/12/13 02:54:20;;;;;;;27.60;17.17;;;;;;;;;;5039435;28;20452;-67
2022/12/13 02:56:53;;;;;;;31.05;18.10;;;;;;;;;;5039432;28;20216;-67
2022/12/13 02:59:19;;;;;;;27.08;17.33;;;;;;;;;;5039411;27;20198;-67
2022/12/13 03:01:50;;;;;;;30.23;18.48;;;;;;;;;;5039591;28;20201;-67
2022/12/13 03:04:21;;;;;;;29.42;18.17;;;;;;;;;;5039364;28;20197;-67
2022/12/13 03:06:54;;;;;;;34.13;17.67;;;;;;;;;;5039415;28;20205;-67
2022/12/13 03:09:25;;;;;;;30.80;17.95;;;;;;;;;;5039506;28;20217;-67
2022/12/13 03:15:07;;;;;;;31.65;18.42;;;;;;;;;;5057777;28;20200;-67
2022/12/13 03:17:36;;;;;;;33.25;19.33;;;;;;;;;;5039466;28;20500;-67
2022/12/13 03:20:03;;;;;;;30.52;17.75;;;;;;;;;;5039134;28;20219;-67
2022/12/13 03:22:33;;;;;;;28.85;18.60;;;;;;;;;;5039323;28;20197;-67
2022/12/13 03:24:59;;;;;;;30.20;18.83;;;;;;;;;;5039228;28;20222;-67
2022/12/13 03:27:25;;;;;;;28.83;17.98;;;;;;;;;;5038728;28;20228;-67
2022/12/13 03:29:51;;;;;;;27.90;17.90;;;;;;;;;;5039129;28;20198;-67
2022/12/13 03:32:18;;;;;;;31.48;19.05;;;;;;;;;;5039090;28;20239;-67
2022/12/13 03:34:45;;;;;;;27.17;18.05;;;;;;;;;;5038849;28;20204;-67
2022/12/13 03:37:12;;;;;;;29.95;17.98;;;;;;;;;;5044753;28;20197;-67
2022/12/13 03:39:39;;;;;;;33.78;17.98;;;;;;;;;;5045295;28;20203;-67
2022/12/13 03:42:06;;;;;;;27.52;16.98;;;;;;;;;;5045450;27;20441;-67
2022/12/13 03:44:32;;;;;;;29.17;18.17;;;;;;;;;;5045665;27;20356;-67
2022/12/13 03:46:58;;;;;;;30.40;17.05;;;;;;;;;;5045523;28;20198;-67
2022/12/13 03:49:24;;;;;;;27.02;17.05;;;;;;;;;;5045235;28;20204;-67
2022/12/13 03:51:51;;;;;;;29.48;16.85;;;;;;;;;;5045231;28;20220;-67
2022/12/13 03:54:17;;;;;;;28.73;16.55;;;;;;;;;;5045387;27;20197;-67
2022/12/13 03:56:45;;;;;;;31.58;17.70;;;;;;;;;;5045171;28;20198;-67
2022/12/13 03:59:11;;;;;;;28.40;17.45;;;;;;;;;;5045184;28;20205;-67
2022/12/13 04:01:37;;;;;;;29.08;17.05;;;;;;;;;;5045259;27;20208;-67
2022/12/13 04:04:04;;;;;;;29.25;17.13;;;;;;;;;;5045483;27;20197;-67
2022/12/13 04:06:30;;;;;;;31.77;18.23;;;;;;;;;;5045332;27;20212;-67
2022/12/13 04:08:56;;;;;;;30.10;17.45;;;;;;;;;;5044923;28;20198;-67
2022/12/13 04:14:08;;;;;;;31.02;18.83;;;;;;;;;;5045311;28;20204;-67
2022/12/13 04:16:34;;;;;;;29.88;17.13;;;;;;;;;;5045039;28;20197;-67
2022/12/13 04:19:00;;;;;;;31.30;17.67;;;;;;;;;;5044772;28;20198;-67
2022/12/13 04:21:27;;;;;;;27.95;16.98;;;;;;;;;;5044970;27;20208;-67
2022/12/13 04:23:53;;;;;;;25.40;15.90;;;;;;;;;;5045227;28;20523;-67
2022/12/13 04:26:19;;;;;;;29.85;15.90;;;;;;;;;;5044896;28;20198;-67
2022/12/13 04:28:45;;;;;;;23.90;15.20;;;;;;;;;;5044771;27;20226;-67
2022/12/13 04:31:13;;;;;;;29.88;16.58;;;;;;;;;;5044890;28;20227;-67
2022/12/13 04:33:39;;;;;;;27.65;16.40;;;;;;;;;;5044932;27;20272;-67
2022/12/13 04:36:06;;;;;;;25.65;15.82;;;;;;;;;;5044893;27;20205;-67
2022/12/13 04:38:32;;;;;;;25.88;15.32;;;;;;;;;;5044941;27;20366;-67
2022/12/13 04:41:04;;;;;;;31.25;15.98;;;;;;;;;;5045009;27;20206;-67
2022/12/13 04:43:30;;;;;;;24.35;15.32;;;;;;;;;;5044661;28;20204;-67
2022/12/13 04:45:57;;;;;;;23.08;14.13;;;;;;;;;;5044851;27;20198;-67
2022/12/13 04:48:25;;;;;;;24.05;15.50;;;;;;;;;;5040959;27;20204;-67
2022/12/13 04:50:51;;;;;;;25.75;15.23;;;;;;;;;;5041277;28;20224;-67
2022/12/13 04:53:17;;;;;;;29.98;15.23;;;;;;;;;;5041220;28;20205;-67
2022/12/13 04:55:44;;;;;;;23.83;14.95;;;;;;;;;;5041680;28;20212;-67
2022/12/13 04:58:10;;;;;;;24.23;16.02;;;;;;;;;;5041370;27;20197;-67
2022/12/13 05:00:36;;;;;;;22.75;14.85;;;;;;;;;;5041368;28;20552;-67
2022/12/13 05:03:03;;;;;;;24.58;15.35;;;;;;;;;;5041337;28;20272;-67
2022/12/13 05:05:30;;;;;;;24.42;15.13;;;;;;;;;;5041057;28;20206;-67
2022/12/13 05:07:57;;;;;;;24.13;15.00;;;;;;;;;;5041333;28;20216;-67
2022/12/13 05:10:23;;;;;;;23.38;14.10;;;;;;;;;;5041111;28;20204;-67
2022/12/13 05:12:49;;;;;;;23.38;14.98;;;;;;;;;;5041263;28;20218;-67
2022/12/13 05:15:16;;;;;;;26.05;15.50;;;;;;;;;;5040938;28;20204;-67
2022/12/13 05:17:42;;;;;;;25.75;14.38;;;;;;;;;;5040962;28;20206;-67
2022/12/13 05:20:09;;;;;;;22.95;14.52;;;;;;;;;;5040623;28;20247;-67
2022/12/13 05:22:37;;;;;;;23.83;14.73;;;;;;;;;;5041266;28;20524;-67
2022/12/13 05:25:03;;;;;;;23.92;14.20;;;;;;;;;;5041145;27;20198;-67
2022/12/13 05:27:29;;;;;;;22.52;13.35;;;;;;;;;;5040852;28;20541;-67
2022/12/13 05:29:56;;;;;;;20.90;13.55;;;;;;;;;;5040809;28;20197;-67
2022/12/13 05:32:22;;;;;;;23.08;13.85;;;;;;;;;;5040711;28;20223;-67
2022/12/13 05:34:49;;;;;;;21.13;12.95;;;;;;;;;;5040840;28;20391;-67
2022/12/13 05:37:15;;;;;;;22.08;13.75;;;;;;;;;;5041131;28;20504;-67
2022/12/13 05:39:43;;;;;;;22.20;14.38;;;;;;;;;;5040600;28;20198;-68
2022/12/13 05:42:10;;;;;;;24.08;15.10;;;;;;;;;;5040687;28;20194;-67
2022/12/13 05:44:36;;;;;;;24.80;14.68;;;;;;;;;;5042892;28;20269;-69
2022/12/13 05:47:03;;;;;;;21.67;14.40;;;;;;;;;;5040536;28;20233;-69
2022/12/13 05:49:29;;;;;;;23.75;13.93;;;;;;;;;;5040904;28;20206;-69
2022/12/13 05:51:55;;;;;;;23.80;13.75;;;;;;;;;;5040555;28;20214;-69
2022/12/13 05:54:22;;;;;;;20.40;13.45;;;;;;;;;;5040510;28;20198;-69
2022/12/13 05:56:49;;;;;;;25.42;15.25;;;;;;;;;;5040537;28;20212;-69
2022/12/13 05:59:16;;;;;;;23.38;14.90;;;;;;;;;;5040090;28;20364;-69
2022/12/13 06:01:42;;;;;;;22.30;14.18;;;;;;;;;;5040451;28;20408;-69
2022/12/13 06:04:08;;;;;;;26.48;15.93;;;;;;;;;;5040126;28;20198;-69
2022/12/13 06:06:34;;;;;;;31.65;18.60;;;;;;;;;;5040194;28;20365;-69
2022/12/13 06:09:02;;;;;;;30.02;18.23;;;;;;;;;;5039923;28;20212;-69
2022/12/13 06:11:28;;;;;;;33.78;19.13;;;;;;;;;;5039751;28;20213;-69
2022/12/13 06:13:56;;;;;;;31.15;19.15;;;;;;;;;;5040307;28;20197;-69
2022/12/13 06:16:22;;;;;;;32.53;18.27;;;;;;;;;;5039823;27;20198;-69
2022/12/13 06:18:49;;;;;;;27.00;16.30;;;;;;;;;;5039677;28;20236;-69
2022/12/13 06:21:15;;;;;;;26.50;16.02;;;;;;;;;;5039453;28;20216;-69
2022/12/13 06:23:41;;;;;;;27.67;16.50;;;;;;;;;;5039160;28;20372;-69
2022/12/13 06:26:07;;;;;;;28.85;15.23;;;;;;;;;;5039538;28;20497;-69
2022/12/13 06:28:34;;;;;;;23.83;15.00;;;;;;;;;;5039712;28;20310;-70
2022/12/13 06:31:02;;;;;;;20.15;13.60;;;;;;;;;;5039825;28;20209;-69
2022/12/13 06:33:28;;;;;;;22.02;14.20;;;;;;;;;;5039554;28;20221;-69
2022/12/13 06:35:56;;;;;;;20.40;13.18;;;;;;;;;;5039550;28;20242;-69
2022/12/13 06:38:22;;;;;;;22.02;14.18;;;;;;;;;;5039846;28;20198;-69
2022/12/13 06:40:49;;;;;;;20.50;13.15;;;;;;;;;;5039671;28;20233;-69
2022/12/13 06:43:15;;;;;;;19.95;12.48;;;;;;;;;;5039190;28;20201;-69
2022/12/13 06:45:42;;;;;;;21.35;12.07;;;;;;;;;;5039335;28;20421;-71
2022/12/13 06:48:10;;;;;;;19.23;11.60;;;;;;;;;;5039219;28;20193;-71
2022/12/13 06:50:37;;;;;;;17.30;10.68;;;;;;;;;;5039424;28;20243;-71
2022/12/13 06:53:03;;;;;;;17.70;11.18;;;;;;;;;;5039718;28;20422;-71
2022/12/13 06:55:30;;;;;;;22.70;10.73;;;;;;;;;;5040222;28;20198;-71
2022/12/13 06:57:56;;;;;;;14.40;10.30;;;;;;;;;;5039331;28;20198;-71
2022/12/13 07:00:22;;;;;;;17.10;10.80;;;;;;;;;;5039718;27;20198;-71
2022/12/13 07:02:51;;;;;;;17.20;10.45;;;;;;;;;;5039882;28;20315;-71
2022/12/13 07:05:19;;;;;;;15.27;10.45;;;;;;;;;;5039597;28;20198;-71
2022/12/13 07:07:45;;;;;;;15.25;10.38;;;;;;;;;;5039595;28;20447;-71
2022/12/13 07:10:11;;;;;;;19.33;10.75;;;;;;;;;;5038455;28;20204;-71
2022/12/13 07:12:38;;;;;;;15.18;10.85;;;;;;;;;;5039004;28;20221;-70
2022/12/13 07:15:05;;;;;;;17.05;11.25;;;;;;;;;;5039771;28;20206;-70
2022/12/13 07:17:31;;;;;;;17.95;11.60;;;;;;;;;;5039305;28;20228;-70
2022/12/13 07:19:58;;;;;;;16.45;11.50;;;;;;;;;;5039070;28;20212;-70
2022/12/13 07:22:25;;;;;;;18.38;12.38;;;;;;;;;;5039285;28;20194;-70
2022/12/13 07:24:52;;;;;;;15.55;10.40;;;;;;;;;;5039110;28;20197;-71
2022/12/13 07:27:18;;;;;;;18.30;11.10;;;;;;;;;;5039430;28;20373;-71
2022/12/13 07:29:45;;;;;;;19.02;11.30;;;;;;;;;;5039101;28;20268;-70
2022/12/13 07:32:11;;;;;;;23.60;12.70;;;;;;;;;;5039156;28;20452;-70
2022/12/13 07:34:37;;;;;;;20.58;11.18;;;;;;;;;;5039066;28;20197;-70
2022/12/13 07:37:03;;;;;;;17.88;10.55;;;;;;;;;;5039132;28;20493;-70
2022/12/13 07:39:31;;;;;;;15.27;9.65;;;;;;;;;;5038532;28;20204;-70
2022/12/13 07:41:58;;;;;;;17.00;10.60;;;;;;;;;;5039250;28;20238;-70
2022/12/13 07:44:24;;;;;;;15.52;10.60;;;;;;;;;;5039102;28;20392;-70
2022/12/13 07:46:50;;;;;;;16.45;11.02;;;;;;;;;;5039082;28;20407;-70
2022/12/13 07:49:17;;;;;;;21.48;11.55;;;;;;;;;;5038854;28;20212;-71
2022/12/13 07:51:43;;;;;;;16.33;10.98;;;;;;;;;;5038959;28;20284;-71
2022/12/13 07:54:09;;;;;;;20.23;11.45;;;;;;;;;;5038742;28;20198;-71
2022/12/13 07:56:37;;;;;;;18.80;11.05;;;;;;;;;;5039120;28;20367;-70
2022/12/13 07:59:03;;;;;;;16.75;10.75;;;;;;;;;;5038763;28;20206;-70
2022/12/13 08:01:31;;;;;;;16.70;11.10;;;;;;;;;;5038913;28;20415;-70
2022/12/13 08:03:57;;;;;;;18.67;11.13;;;;;;;;;;5038724;28;20216;-70
2022/12/13 08:06:23;;;;;;;16.40;10.55;;;;;;;;;;5038642;28;20198;-70
2022/12/13 08:08:50;;;;;;;16.95;11.00;;;;;;;;;;5038463;28;20206;-70
2022/12/13 08:11:16;;;;;;;15.90;10.70;;;;;;;;;;5038616;28;20198;-70
2022/12/13 08:13:44;;;;;;;18.35;10.90;;;;;;;;;;5038831;28;20463;-70
2022/12/13 08:16:11;;;;;;;20.08;11.13;;;;;;;;;;5038765;28;20205;-70
2022/12/13 08:18:39;;;;;;;18.17;10.95;;;;;;;;;;5038724;28;20251;-70
2022/12/13 08:21:06;;;;;;;15.77;10.68;;;;;;;;;;5038377;28;20249;-70
2022/12/13 08:23:33;;;;;;;18.90;10.63;;;;;;;;;;5040634;28;20260;-70
2022/12/13 08:25:59;;;;;;;19.40;11.45;;;;;;;;;;5042108;28;20198;-70
2022/12/13 08:28:26;;;;;;;16.80;11.05;;;;;;;;;;5041448;28;20224;-70
2022/12/13 08:30:54;;;;;;;18.23;12.48;;;;;;;;;;5041783;28;20521;-70
2022/12/13 08:33:21;;;;;;;19.25;11.88;;;;;;;;;;5041826;28;20217;-70
2022/12/13 08:35:48;;;;;;;17.67;11.40;;;;;;;;;;5042063;28;20219;-70
2022/12/13 08:38:14;;;;;;;18.13;11.35;;;;;;;;;;5041523;28;20205;-70
2022/12/13 08:40:40;;;;;;;18.02;11.27;;;;;;;;;;5041907;28;20204;-70
2022/12/13 08:43:07;;;;;;;18.27;11.43;;;;;;;;;;5041751;28;20388;-70
2022/12/13 08:45:33;;;;;;;16.90;11.93;;;;;;;;;;5041580;28;20227;-70
2022/12/13 08:48:02;;;;;;;21.50;12.40;;;;;;;;;;5041824;28;20198;-70
2022/12/13 08:50:29;;;;;;;19.27;11.98;;;;;;;;;;5041492;28;20198;-70
2022/12/13 08:52:56;;;;;;;24.52;11.82;;;;;;;;;;5041555;28;20543;-70
2022/12/13 08:55:22;;;;;;;18.85;11.60;;;;;;;;;;5041604;28;20445;-70
2022/12/13 08:57:48;;;;;;;16.08;11.05;;;;;;;;;;5041472;28;20212;-70
2022/12/13 09:00:16;;;;;;;16.83;10.68;;;;;;;;;;5041159;28;20505;-70
2022/12/13 09:02:42;;;;;;;16.98;11.07;;;;;;;;;;5041250;28;20404;-70
2022/12/13 09:05:11;;;;;;;17.88;11.48;;;;;;;;;;5041532;28;20256;-70
2022/12/13 09:07:39;;;;;;;17.27;10.20;;;;;;;;;;5041371;28;20488;-70
2022/12/13 09:10:06;;;;;;;17.83;10.80;;;;;;;;;;5041135;28;20204;-70
2022/12/13 09:12:32;;;;;;;18.27;11.10;;;;;;;;;;5041286;28;20224;-70
2022/12/13 09:14:59;;;;;;;17.92;10.30;;;;;;;;;;5041042;28;20197;-70
2022/12/13 09:17:25;;;;;;;17.95;10.52;;;;;;;;;;5041509;28;20198;-70
2022/12/13 09:19:52;;;;;;;16.83;10.90;;;;;;;;;;5040586;28;20213;-70
2022/12/13 09:22:20;;;;;;;14.57;9.98;;;;;;;;;;5041077;28;20239;-70
2022/12/13 09:24:47;;;;;;;16.58;10.75;;;;;;;;;;5041133;28;20205;-70
2022/12/13 09:27:13;;;;;;;17.67;10.82;;;;;;;;;;5040974;28;20270;-70
2022/12/13 09:29:40;;;;;;;14.10;9.38;;;;;;;;;;5040741;27;20204;-70
2022/12/13 09:32:06;;;;;;;16.17;10.45;;;;;;;;;;5040741;27;20526;-70
2022/12/13 09:34:32;;;;;;;14.45;9.93;;;;;;;;;;5040364;28;20198;-70
2022/12/13 09:36:59;;;;;;;15.88;10.05;;;;;;;;;;5040974;28;20228;-70
2022/12/13 09:39:26;;;;;;;15.27;10.35;;;;;;;;;;5040494;28;20205;-70
2022/12/13 09:41:54;;;;;;;14.05;9.85;;;;;;;;;;5040855;28;20610;-70
2022/12/13 09:44:22;;;;;;;16.75;10.70;;;;;;;;;;5040547;28;20202;-70
2022/12/13 09:46:48;;;;;;;14.48;9.35;;;;;;;;;;5040503;28;20205;-70
2022/12/13 09:49:17;;;;;;;17.27;9.82;;;;;;;;;;5040516;28;20197;-70
2022/12/13 09:51:47;;;;;;;15.82;10.75;;;;;;;;;;5040614;28;20198;-70
2022/12/13 09:54:16;;;;;;;16.20;10.15;;;;;;;;;;5040728;28;20406;-70
2022/12/13 09:56:49;;;;;;;16.63;10.45;;;;;;;;;;5040456;28;20198;-70
2022/12/13 09:59:16;;;;;;;17.73;10.07;;;;;;;;;;5040248;28;20206;-70
2022/12/13 10:01:42;;;;;;;13.45;9.18;;;;;;;;;;5040567;28;20198;-70
2022/12/13 10:04:11;;;;;;;12.40;8.60;;;;;;;;;;5040602;28;20194;-70
2022/12/13 10:06:37;;;;;;;18.05;10.77;;;;;;;;;;5040420;28;20212;-70
2022/12/13 10:09:07;;;;;;;18.42;9.68;;;;;;;;;;5040008;28;20198;-70
2022/12/13 10:11:34;;;;;;;13.55;8.90;;;;;;;;;;5040305;28;20276;-70
2022/12/13 10:14:03;;;;;;;12.90;9.38;;;;;;;;;;5040528;28;20230;-70
2022/12/13 10:16:38;;;;;;;18.95;9.60;;;;;;;;;;5040280;28;20220;-70
2022/12/13 10:19:13;;;;;;;13.43;8.82;;;;;;;;;;5039945;28;20202;-70
2022/12/13 10:21:41;;;;;;;13.93;9.50;;;;;;;;;;5040202;28;20535;-70
2022/12/13 10:24:13;;;;;;;12.68;9.32;;;;;;;;;;5040103;28;20200;-70
2022/12/13 10:26:40;;;;;;;14.95;8.90;;;;;;;;;;5040163;28;20229;-70
2022/12/13 10:29:08;;;;;;;15.02;9.48;;;;;;;;;;5039799;28;20537;-70
2022/12/13 10:31:38;;;;;;;17.15;9.27;;;;;;;;;;5040080;28;20230;-70
2022/12/13 10:34:05;;;;;;;16.52;10.75;;;;;;;;;;5040372;28;20221;-70
2022/12/13 10:36:33;;;;;;;14.90;9.50;;;;;;;;;;5039894;28;20532;-70
2022/12/13 10:39:00;;;;;;;15.52;9.50;;;;;;;;;;5039759;28;20206;-70
2022/12/13 10:41:28;;;;;;;13.77;8.77;;;;;;;;;;5040150;28;20269;-70
2022/12/13 10:44:14;;;;;;;13.00;8.23;;;;;;;;;;5040137;28;20541;-70
2022/12/13 10:46:42;;;;;;;15.05;8.80;;;;;;;;;;5038842;28;20197;-70
2022/12/13 10:49:15;;;;;;;11.77;8.60;;;;;;;;;;5039395;28;20602;-70
2022/12/13 10:51:41;;;;;;;13.60;9.00;;;;;;;;;;5039773;28;20198;-70
2022/12/13 10:54:13;;;;;;;13.77;9.13;;;;;;;;;;5039777;28;20222;-70
2022/12/13 10:56:41;;;;;;;12.00;8.15;;;;;;;;;;5039790;28;20198;-70
2022/12/13 10:59:24;;;;;;;13.02;7.75;;;;;;;;;;5039610;28;20204;-70
2022/12/13 11:01:50;;;;;;;11.63;8.07;;;;;;;;;;5039524;28;20198;-70
2022/12/13 11:04:24;;;;;;;11.40;8.10;;;;;;;;;;5039410;28;20198;-70
2022/12/13 11:06:50;;;;;;;12.20;8.48;;;;;;;;;;5039828;28;20190;-71
2022/12/13 11:09:23;;;;;;;19.05;8.90;;;;;;;;;;5039151;28;20198;-71
2022/12/13 11:11:50;;;;;;;14.05;8.27;;;;;;;;;;5027359;28;20214;-71
2022/12/13 11:14:19;;;;;;;12.63;8.52;;;;;;;;;;5032442;28;20235;-71
2022/12/13 11:16:49;;;;;;;12.32;8.75;;;;;;;;;;5034022;28;20214;-71
2022/12/13 11:19:18;;;;;;;12.95;8.77;;;;;;;;;;5034166;28;20210;-72
2022/12/13 11:21:46;;;;;;;11.10;8.05;;;;;;;;;;5033964;28;20217;-72
2022/12/13 11:24:19;;;;;;;17.10;8.55;;;;;;;;;;5034225;28;20251;-71
2022/12/13 11:26:46;;;;;;;10.77;7.32;;;;;;;;;;5033709;28;20209;-71
2022/12/13 11:29:28;;;;;;;10.88;7.07;;;;;;;;;;5033802;28;20226;-71
2022/12/13 11:31:59;;;;;;;15.20;7.85;;;;;;;;;;5033536;28;20217;-71
2022/12/13 11:34:34;;;;;;;14.88;8.50;;;;;;;;;;5033758;28;20226;-71
2022/12/13 11:37:03;;;;;;;11.88;7.45;;;;;;;;;;5033377;28;20201;-71
2022/12/13 11:39:32;;;;;;;15.25;8.27;;;;;;;;;;5033244;28;20201;-71
2022/12/13 11:42:00;;;;;;;15.75;8.18;;;;;;;;;;5033261;28;20290;-71
2022/12/13 11:44:34;;;;;;;10.90;7.70;;;;;;;;;;5033670;28;20385;-71
2022/12/13 11:47:00;;;;;;;9.00;7.25;;;;;;;;;;5033637;28;20415;-71
2022/12/13 11:49:37;;;;;;;9.90;7.43;;;;;;;;;;5033187;28;20300;-71
2022/12/13 11:52:06;;;;;;;12.80;7.60;;;;;;;;;;5033452;28;20433;-71
2022/12/13 11:54:34;;;;;;;13.73;7.30;;;;;;;;;;5033560;28;20297;-71
2022/12/13 11:57:04;;;;;;;14.05;7.88;;;;;;;;;;5034390;28;20209;-70
2022/12/13 11:59:34;;;;;;;12.35;7.32;;;;;;;;;;5037064;28;20457;-71
2022/12/13 12:02:05;;;;;;;12.48;8.05;;;;;;;;;;5036436;28;20553;-71
2022/12/13 12:04:34;;;;;;;15.15;7.63;;;;;;;;;;5036890;28;20373;-71
2022/12/13 12:07:04;;;;;;;16.98;7.63;;;;;;;;;;5037061;28;20218;-71
2022/12/13 12:09:31;;;;;;;13.57;7.72;;;;;;;;;;5036652;28;20217;-71
2022/12/13 12:12:00;;;;;;;11.32;7.28;;;;;;;;;;5036810;28;20517;-71
2022/12/13 12:14:35;;;;;;;11.40;7.40;;;;;;;;;;5037172;28;20230;-71
2022/12/13 12:17:05;;;;;;;10.43;7.15;;;;;;;;;;5036852;28;20209;-71
2022/12/13 12:19:35;;;;;;;10.23;7.05;;;;;;;;;;5036599;28;20435;-71
2022/12/13 12:22:08;;;;;;;11.93;7.43;;;;;;;;;;5036491;28;20623;-71
2022/12/13 12:24:38;;;;;;;12.02;7.72;;;;;;;;;;5036507;28;20206;-71
2022/12/13 12:27:14;;;;;;;13.35;7.70;;;;;;;;;;5036594;28;20224;-71
2022/12/13 12:29:48;;;;;;;12.90;7.40;;;;;;;;;;5036087;28;20218;-71
2022/12/13 12:32:22;;;;;;;11.30;7.80;;;;;;;;;;5035897;28;20218;-71
2022/12/13 12:34:53;;;;;;;10.90;7.53;;;;;;;;;;5036714;28;20225;-71
2022/12/13 12:37:25;;;;;;;11.15;7.70;;;;;;;;;;5036953;28;20521;-71
2022/12/13 12:39:59;;;;;;;13.40;7.70;;;;;;;;;;5036132;28;20432;-71
2022/12/13 12:42:34;;;;;;;13.45;8.60;;;;;;;;;;5035753;28;20212;-71
2022/12/13 12:45:08;;;;;;;10.13;6.75;;;;;;;;;;5036404;28;20212;-71
2022/12/13 12:47:39;;;;;;;10.10;7.45;;;;;;;;;;5036273;28;20210;-71
2022/12/13 12:50:16;;;;;;;10.50;7.25;;;;;;;;;;5035869;28;20209;-71
2022/12/13 12:52:49;;;;;;;10.20;6.55;;;;;;;;;;5036090;28;20456;-71
2022/12/13 12:55:18;;;;;;;11.43;7.07;;;;;;;;;;5036481;28;20383;-71
2022/12/13 12:57:53;;;;;;;9.25;6.45;;;;;;;;;;5036297;28;20217;-71
2022/12/13 13:00:20;;;;;;;12.02;7.25;;;;;;;;;;5035485;28;20216;-71
2022/12/13 13:02:52;;;;;;;9.82;7.45;;;;;;;;;;5035405;28;20285;-71
2022/12/13 13:05:21;;;;;;;10.85;6.55;;;;;;;;;;5035917;28;20221;-71
2022/12/13 13:07:49;;;;;;;9.20;7.15;;;;;;;;;;5035603;28;20263;-71
2022/12/13 13:10:16;;;;;;;8.25;6.57;;;;;;;;;;5035075;28;20206;-71
2022/12/13 13:12:43;;;;;;;7.63;6.38;;;;;;;;;;5035342;28;20526;-71
2022/12/13 13:15:24;;;;;;;10.95;7.00;;;;;;;;;;5036171;28;20236;-71
2022/12/13 13:17:51;;;;;;;6.57;5.85;;;;;;;;;;5043977;28;20225;-71
2022/12/13 13:20:21;;;;;;;8.25;6.00;;;;;;;;;;5035475;28;20572;-71
2022/12/13 13:22:48;;;;;;;8.55;6.47;;;;;;;;;;5035186;28;20301;-71
2022/12/13 13:25:20;;;;;;;12.07;7.15;;;;;;;;;;5035643;28;20243;-71
2022/12/13 13:27:48;;;;;;;11.52;6.72;;;;;;;;;;5035713;28;20476;-71
2022/12/13 13:30:16;;;;;;;8.80;6.35;;;;;;;;;;5035077;28;20217;-71
2022/12/13 13:32:42;;;;;;;9.15;6.40;;;;;;;;;;5035307;28;20637;-71
2022/12/13 13:35:27;;;;;;;7.40;6.25;;;;;;;;;;5035675;28;20229;-71
2022/12/13 13:37:55;;;;;;;8.70;5.80;;;;;;;;;;5035521;28;20737;-71
2022/12/13 13:40:40;;;;;;;7.55;5.60;;;;;;;;;;5035534;28;20240;-71
2022/12/13 13:43:15;;;;;;;6.72;5.55;;;;;;;;;;5035289;28;20216;-71
2022/12/13 13:45:53;;;;;;;8.73;6.32;;;;;;;;;;5035174;28;20593;-71
2022/12/13 13:48:36;;;;;;;7.10;5.50;;;;;;;;;;5035091;28;20453;-71
2022/12/13 13:51:20;;;;;;;10.25;6.20;;;;;;;;;;5035218;28;20209;-71
2022/12/13 13:53:59;;;;;;;6.88;5.55;;;;;;;;;;5034777;28;20319;-71
2022/12/13 13:56:43;;;;;;;11.52;6.25;;;;;;;;;;5035415;28;20202;-71
2022/12/13 13:59:30;;;;;;;10.65;5.90;;;;;;;;;;5034804;28;20209;-71
2022/12/13 14:02:10;;;;;;;10.02;6.03;;;;;;;;;;5034665;28;20544;-71
2022/12/13 14:04:52;;;;;;;10.27;6.25;;;;;;;;;;5035036;28;20405;-71
2022/12/13 14:07:39;;;;;;;9.73;5.95;;;;;;;;;;5015843;28;20225;-71
2022/12/13 14:10:23;;;;;;;10.70;6.05;;;;;;;;;;5015150;28;20591;-71
2022/12/13 14:13:06;;;;;;;7.03;5.80;;;;;;;;;;5014958;28;20213;-71
2022/12/13 14:15:48;;;;;;;7.95;6.20;;;;;;;;;;4994381;28;20213;-71
2022/12/13 14:18:50;;;;;;;7.38;5.93;;;;;;;;;;5015090;28;20236;-71
2022/12/13 14:21:20;;;;;;;8.82;5.30;;;;;;;;;;4954374;28;20220;-71
2022/12/13 14:23:52;;;;;;;7.85;5.93;;;;;;;;;;4954075;28;20208;-71
2022/12/13 14:26:24;;;;;;;8.13;5.88;;;;;;;;;;4985213;28;20214;-71
2022/12/13 14:28:53;;;;;;;9.20;6.15;;;;;;;;;;5014655;28;20428;-71
2022/12/13 14:31:21;;;;;;;9.57;6.32;;;;;;;;;;5014639;28;20382;-71
2022/12/13 14:33:48;;;;;;;7.53;5.85;;;;;;;;;;5014350;28;20245;-71
2022/12/13 14:36:15;;;;;;;9.95;6.30;;;;;;;;;;5014948;28;20233;-71
2022/12/13 14:38:42;;;;;;;7.25;5.85;;;;;;;;;;5014920;28;20245;-71